createdAt,value
2018-07-10T00:00:09.072Z,82.08
2018-07-10T00:01:09.644Z,81.98
2018-07-10T00:02:10.220Z,81.22
2018-07-10T00:03:10.783Z,80.93
2018-07-10T00:04:11.328Z,80.83
2018-07-10T00:05:11.881Z,80.93
2018-07-10T00:06:12.431Z,81.02
2018-07-10T00:07:12.985Z,80.51
2018-07-10T00:08:13.559Z,80.74
2018-07-10T00:09:14.088Z,80.93
2018-07-10T00:10:14.636Z,80.64
2018-07-10T00:11:15.188Z,80.12
2018-07-10T00:12:15.762Z,80.07
2018-07-10T00:13:16.281Z,79.59
2018-07-10T00:14:16.836Z,79.39
2018-07-10T00:15:17.391Z,79.36
2018-07-10T00:16:17.945Z,79.16
2018-07-10T00:17:18.502Z,79.36
2018-07-10T00:18:19.068Z,79.26
2018-07-10T00:19:19.622Z,79.26
2018-07-10T00:20:20.177Z,79.26
2018-07-10T00:21:20.728Z,78.59
2018-07-10T00:22:21.281Z,78.88
2018-07-10T00:23:21.838Z,78.88
2018-07-10T00:24:22.387Z,79.07
2018-07-10T00:25:22.969Z,79.07
2018-07-10T00:26:23.547Z,79.16
2018-07-10T00:27:24.096Z,78.20
2018-07-10T00:28:24.645Z,78.11
2018-07-10T00:29:25.191Z,78.40
2018-07-10T00:30:25.795Z,77.92
2018-07-10T00:31:26.327Z,78.02
2018-07-10T00:32:26.872Z,78.40
2018-07-10T00:33:27.427Z,78.11
2018-07-10T00:34:27.982Z,78.11
2018-07-10T00:35:28.555Z,78.07
2018-07-10T00:36:29.110Z,78.40
2018-07-10T00:37:29.667Z,78.36
2018-07-10T00:38:30.222Z,78.36
2018-07-10T00:39:30.772Z,78.74
2018-07-10T00:40:31.329Z,78.74
2018-07-10T00:41:31.882Z,78.45
2018-07-10T00:42:32.433Z,78.69
2018-07-10T00:43:32.985Z,78.88
2018-07-10T00:44:33.553Z,78.93
2018-07-10T00:45:34.100Z,78.74
2018-07-10T00:46:34.656Z,79.32
2018-07-10T00:47:35.208Z,79.22
2018-07-10T00:48:35.765Z,79.32
2018-07-10T00:49:36.317Z,79.51
2018-07-10T00:50:36.870Z,79.32
2018-07-10T00:51:37.417Z,79.41
2018-07-10T00:52:37.972Z,79.70
2018-07-10T00:53:38.526Z,79.89
2018-07-10T00:54:39.071Z,79.70
2018-07-10T00:55:39.630Z,79.70
2018-07-10T00:56:40.192Z,79.93
2018-07-10T00:57:40.739Z,79.32
2018-07-10T00:58:41.293Z,79.80
2018-07-10T00:59:41.847Z,79.60
2018-07-10T01:00:42.395Z,80.18
2018-07-10T01:01:42.948Z,80.08
2018-07-10T01:02:43.502Z,80.08
2018-07-10T01:03:44.072Z,79.70
2018-07-10T01:04:44.610Z,79.89
2018-07-10T01:05:45.164Z,80.27
2018-07-10T01:06:45.715Z,80.18
2018-07-10T01:07:46.529Z,80.18
2018-07-10T01:08:47.074Z,80.37
2018-07-10T01:09:47.628Z,80.56
2018-07-10T01:10:48.173Z,80.66
2018-07-10T01:11:48.730Z,80.66
2018-07-10T01:12:49.283Z,80.85
2018-07-10T01:13:49.836Z,80.66
2018-07-10T01:14:50.390Z,80.85
2018-07-10T01:15:50.945Z,80.85
2018-07-10T01:16:51.491Z,80.85
2018-07-10T01:17:52.048Z,81.10
2018-07-10T01:18:52.645Z,81.33
2018-07-10T01:19:53.149Z,81.33
2018-07-10T01:20:53.702Z,81.10
2018-07-10T01:21:54.246Z,81.43
2018-07-10T01:22:54.796Z,81.62
2018-07-10T01:23:55.349Z,80.94
2018-07-10T01:24:55.905Z,81.43
2018-07-10T01:25:56.461Z,81.43
2018-07-10T01:26:57.020Z,81.43
2018-07-10T01:27:57.573Z,81.13
2018-07-10T01:28:58.127Z,81.43
2018-07-10T01:29:58.687Z,81.62
2018-07-10T01:30:59.226Z,81.43
2018-07-10T01:31:59.783Z,81.13
2018-07-10T01:33:00.333Z,81.13
2018-07-10T01:34:00.889Z,80.85
2018-07-10T01:35:01.456Z,80.85
2018-07-10T01:36:01.997Z,81.13
2018-07-10T01:37:02.547Z,81.33
2018-07-10T01:38:03.102Z,81.62
2018-07-10T01:39:03.654Z,81.23
2018-07-10T01:40:04.211Z,81.33
2018-07-10T01:41:04.764Z,81.43
2018-07-10T01:42:05.312Z,81.13
2018-07-10T01:43:05.867Z,81.48
2018-07-10T01:44:06.421Z,81.77
2018-07-10T01:45:06.973Z,81.90
2018-07-10T01:46:07.526Z,81.90
2018-07-10T01:47:08.082Z,81.81
2018-07-10T01:48:08.638Z,82.15
2018-07-10T01:49:09.192Z,82.24
2018-07-10T01:50:09.742Z,81.96
2018-07-10T01:51:10.296Z,82.06
2018-07-10T01:52:10.847Z,81.96
2018-07-10T01:53:11.404Z,82.06
2018-07-10T01:54:11.956Z,82.43
2018-07-10T01:55:12.520Z,82.15
2018-07-10T01:56:13.066Z,82.06
2018-07-10T01:57:13.626Z,82.00
2018-07-10T01:58:14.176Z,82.00
2018-07-10T01:59:14.729Z,82.06
2018-07-10T02:00:15.288Z,82.34
2018-07-10T02:01:15.845Z,82.53
2018-07-10T02:02:16.390Z,82.63
2018-07-10T02:03:16.944Z,83.01
2018-07-10T02:04:17.498Z,82.92
2018-07-10T02:05:18.046Z,83.30
2018-07-10T02:06:18.599Z,83.49
2018-07-10T02:07:19.153Z,83.39
2018-07-10T02:08:19.707Z,83.39
2018-07-10T02:09:20.256Z,83.49
2018-07-10T02:10:20.812Z,83.59
2018-07-10T02:11:21.360Z,83.59
2018-07-10T02:12:21.915Z,83.59
2018-07-10T02:13:22.468Z,83.30
2018-07-10T02:14:23.022Z,83.30
2018-07-10T02:15:23.580Z,83.39
2018-07-10T02:16:24.131Z,83.39
2018-07-10T02:17:24.690Z,83.30
2018-07-10T02:18:25.242Z,83.78
2018-07-10T02:19:25.795Z,83.78
2018-07-10T02:20:26.350Z,84.16
2018-07-10T02:21:26.897Z,83.30
2018-07-10T02:22:27.454Z,83.68
2018-07-10T02:23:28.012Z,83.87
2018-07-10T02:24:28.561Z,83.39
2018-07-10T02:25:29.110Z,83.87
2018-07-10T02:26:29.654Z,83.30
2018-07-10T02:27:30.210Z,84.16
2018-07-10T02:28:30.756Z,83.54
2018-07-10T02:29:31.312Z,84.06
2018-07-10T02:30:31.863Z,84.22
2018-07-10T02:31:32.417Z,83.87
2018-07-10T02:32:32.971Z,83.78
2018-07-10T02:33:33.526Z,83.59
2018-07-10T02:34:34.080Z,83.97
2018-07-10T02:35:34.632Z,83.87
2018-07-10T02:36:35.188Z,83.78
2018-07-10T02:37:35.744Z,83.78
2018-07-10T02:38:36.297Z,83.73
2018-07-10T02:39:36.848Z,83.78
2018-07-10T02:40:37.398Z,84.06
2018-07-10T02:41:37.956Z,83.73
2018-07-10T02:42:38.505Z,83.20
2018-07-10T02:43:39.097Z,83.01
2018-07-10T02:44:39.615Z,83.16
2018-07-10T02:45:40.170Z,83.78
2018-07-10T02:46:40.727Z,83.97
2018-07-10T02:47:41.270Z,83.87
2018-07-10T02:48:41.821Z,83.45
2018-07-10T02:49:42.375Z,83.87
2018-07-10T02:50:42.931Z,83.73
2018-07-10T02:51:43.482Z,83.73
2018-07-10T02:52:44.043Z,84.12
2018-07-10T02:53:44.595Z,84.31
2018-07-10T02:54:45.138Z,83.78
2018-07-10T02:55:45.684Z,83.97
2018-07-10T02:56:46.240Z,84.16
2018-07-10T02:57:46.799Z,84.12
2018-07-10T02:58:47.352Z,83.93
2018-07-10T02:59:47.903Z,84.22
2018-07-10T03:00:48.454Z,84.41
2018-07-10T03:01:49.002Z,84.50
2018-07-10T03:02:49.553Z,84.31
2018-07-10T03:03:50.109Z,84.22
2018-07-10T03:04:50.668Z,84.22
2018-07-10T03:05:51.218Z,84.02
2018-07-10T03:06:51.775Z,84.31
2018-07-10T03:07:52.323Z,84.12
2018-07-10T03:08:52.883Z,84.02
2018-07-10T03:09:53.435Z,83.83
2018-07-10T03:10:53.993Z,84.22
2018-07-10T03:11:54.560Z,84.12
2018-07-10T03:12:55.097Z,84.31
2018-07-10T03:13:55.652Z,84.22
2018-07-10T03:14:56.201Z,84.12
2018-07-10T03:15:56.755Z,84.22
2018-07-10T03:16:57.308Z,84.31
2018-07-10T03:17:57.868Z,84.69
2018-07-10T03:18:58.409Z,84.50
2018-07-10T03:19:58.968Z,84.98
2018-07-10T03:20:59.540Z,85.17
2018-07-10T03:22:00.080Z,85.08
2018-07-10T03:23:00.626Z,85.27
2018-07-10T03:24:01.183Z,84.88
2018-07-10T03:25:01.730Z,85.03
2018-07-10T03:26:02.285Z,85.32
2018-07-10T03:27:02.845Z,85.55
2018-07-10T03:28:03.396Z,85.41
2018-07-10T03:29:03.966Z,85.80
2018-07-10T03:30:04.510Z,85.84
2018-07-10T03:31:05.068Z,85.80
2018-07-10T03:32:05.626Z,85.61
2018-07-10T03:33:06.170Z,85.51
2018-07-10T03:34:06.723Z,85.89
2018-07-10T03:35:07.281Z,85.80
2018-07-10T03:36:07.838Z,85.84
2018-07-10T03:37:08.397Z,85.99
2018-07-10T03:38:08.948Z,86.18
2018-07-10T03:39:09.506Z,86.28
2018-07-10T03:40:10.065Z,86.28
2018-07-10T03:41:10.613Z,85.89
2018-07-10T03:42:11.171Z,85.89
2018-07-10T03:43:11.726Z,85.99
2018-07-10T03:44:12.277Z,86.08
2018-07-10T03:45:12.834Z,85.94
2018-07-10T03:46:13.389Z,86.04
2018-07-10T03:47:13.949Z,85.94
2018-07-10T03:48:14.500Z,85.94
2018-07-10T03:49:15.054Z,86.18
2018-07-10T03:50:15.604Z,86.66
2018-07-10T03:51:16.160Z,86.61
2018-07-10T03:52:16.719Z,86.61
2018-07-10T03:53:17.276Z,86.51
2018-07-10T03:54:17.835Z,86.51
2018-07-10T03:55:18.388Z,86.80
2018-07-10T03:56:18.946Z,86.90
2018-07-10T03:57:19.503Z,86.61
2018-07-10T03:58:20.050Z,86.22
2018-07-10T03:59:20.609Z,85.94
2018-07-10T04:00:21.165Z,86.04
2018-07-10T04:01:21.729Z,85.94
2018-07-10T04:02:22.280Z,86.04
2018-07-10T04:03:22.834Z,86.13
2018-07-10T04:04:23.383Z,86.13
2018-07-10T04:05:23.943Z,85.94
2018-07-10T04:06:24.500Z,85.94
2018-07-10T04:07:25.055Z,86.22
2018-07-10T04:08:25.606Z,86.13
2018-07-10T04:09:26.164Z,86.22
2018-07-10T04:10:26.722Z,86.04
2018-07-10T04:11:27.275Z,85.84
2018-07-10T04:12:27.835Z,86.04
2018-07-10T04:13:28.394Z,85.84
2018-07-10T04:14:28.950Z,85.94
2018-07-10T04:15:29.502Z,85.94
2018-07-10T04:16:30.064Z,85.94
2018-07-10T04:17:30.620Z,85.84
2018-07-10T04:18:31.177Z,86.04
2018-07-10T04:19:31.739Z,86.04
2018-07-10T04:20:32.298Z,85.65
2018-07-10T04:21:32.853Z,85.84
2018-07-10T04:22:33.411Z,85.75
2018-07-10T04:23:33.969Z,85.94
2018-07-10T04:24:34.526Z,85.94
2018-07-10T04:25:35.085Z,85.55
2018-07-10T04:26:35.636Z,85.75
2018-07-10T04:27:36.198Z,85.75
2018-07-10T04:28:36.756Z,85.55
2018-07-10T04:29:37.316Z,85.27
2018-07-10T04:30:37.880Z,85.46
2018-07-10T04:31:38.435Z,85.46
2018-07-10T04:32:38.993Z,85.36
2018-07-10T04:33:39.550Z,85.65
2018-07-10T04:34:40.112Z,85.55
2018-07-10T04:35:40.674Z,86.04
2018-07-10T04:36:41.232Z,85.84
2018-07-10T04:37:41.791Z,85.94
2018-07-10T04:38:42.349Z,85.84
2018-07-10T04:39:42.904Z,85.65
2018-07-10T04:40:43.456Z,85.46
2018-07-10T04:41:44.016Z,85.46
2018-07-10T04:42:44.569Z,85.46
2018-07-10T04:43:45.121Z,85.55
2018-07-10T04:44:45.678Z,85.84
2018-07-10T04:45:46.238Z,85.84
2018-07-10T04:46:46.791Z,85.27
2018-07-10T04:47:47.348Z,85.60
2018-07-10T04:48:47.906Z,85.36
2018-07-10T04:49:48.464Z,85.75
2018-07-10T04:50:49.022Z,85.88
2018-07-10T04:51:49.576Z,85.46
2018-07-10T04:52:50.131Z,85.41
2018-07-10T04:53:50.692Z,85.75
2018-07-10T04:54:51.250Z,85.75
2018-07-10T04:55:51.808Z,85.94
2018-07-10T04:56:52.381Z,86.13
2018-07-10T04:57:53.015Z,85.94
2018-07-10T04:58:53.560Z,86.22
2018-07-10T04:59:54.128Z,85.84
2018-07-10T05:00:54.707Z,86.70
2018-07-10T05:01:55.257Z,86.51
2018-07-10T05:02:55.819Z,86.32
2018-07-10T05:03:56.382Z,86.04
2018-07-10T05:04:56.935Z,86.41
2018-07-10T05:05:57.540Z,85.98
2018-07-10T05:06:58.049Z,85.60
2018-07-10T05:07:58.605Z,85.69
2018-07-10T05:08:59.162Z,86.08
2018-07-10T05:09:59.720Z,85.60
2018-07-10T05:11:00.284Z,85.55
2018-07-10T05:12:00.841Z,85.88
2018-07-10T05:13:01.397Z,85.31
2018-07-10T05:14:01.961Z,85.41
2018-07-10T05:15:02.516Z,85.88
2018-07-10T05:16:03.064Z,85.69
2018-07-10T05:17:03.637Z,85.31
2018-07-10T05:18:04.176Z,85.50
2018-07-10T05:19:04.736Z,85.50
2018-07-10T05:20:05.296Z,85.50
2018-07-10T05:21:05.854Z,85.69
2018-07-10T05:22:06.414Z,85.50
2018-07-10T05:23:07.015Z,85.88
2018-07-10T05:24:07.528Z,85.50
2018-07-10T05:25:08.084Z,85.88
2018-07-10T05:26:08.641Z,85.84
2018-07-10T05:27:09.199Z,85.88
2018-07-10T05:28:09.753Z,85.69
2018-07-10T05:29:10.323Z,85.46
2018-07-10T05:30:10.898Z,85.60
2018-07-10T05:31:11.571Z,85.79
2018-07-10T05:32:12.104Z,85.79
2018-07-10T05:33:12.670Z,85.50
2018-07-10T05:34:13.226Z,85.88
2018-07-10T05:35:13.786Z,85.41
2018-07-10T05:36:14.341Z,85.60
2018-07-10T05:37:14.954Z,85.79
2018-07-10T05:38:15.466Z,85.79
2018-07-10T05:39:16.025Z,86.17
2018-07-10T05:40:16.592Z,86.32
2018-07-10T05:41:17.245Z,86.13
2018-07-10T05:42:17.815Z,86.04
2018-07-10T05:43:18.347Z,85.94
2018-07-10T05:44:18.910Z,85.79
2018-07-10T05:45:19.472Z,86.41
2018-07-10T05:46:20.076Z,85.94
2018-07-10T05:47:20.586Z,86.36
2018-07-10T05:48:21.143Z,86.32
2018-07-10T05:49:21.706Z,86.17
2018-07-10T05:50:22.267Z,85.60
2018-07-10T05:51:22.827Z,85.12
2018-07-10T05:52:23.390Z,85.50
2018-07-10T05:53:23.955Z,85.31
2018-07-10T05:54:24.516Z,85.02
2018-07-10T05:55:25.079Z,85.02
2018-07-10T05:56:25.646Z,84.64
2018-07-10T05:57:26.205Z,84.74
2018-07-10T05:58:26.777Z,85.12
2018-07-10T05:59:27.326Z,85.02
2018-07-10T06:00:27.884Z,84.64
2018-07-10T06:01:28.454Z,84.74
2018-07-10T06:02:29.010Z,84.45
2018-07-10T06:03:29.571Z,84.55
2018-07-10T06:04:30.162Z,84.45
2018-07-10T06:05:30.700Z,84.11
2018-07-10T06:06:31.262Z,84.16
2018-07-10T06:07:31.826Z,83.87
2018-07-10T06:08:32.384Z,84.11
2018-07-10T06:09:32.940Z,83.82
2018-07-10T06:10:33.603Z,83.63
2018-07-10T06:11:34.098Z,83.82
2018-07-10T06:12:34.645Z,83.34
2018-07-10T06:13:35.201Z,83.53
2018-07-10T06:14:35.757Z,83.34
2018-07-10T06:15:36.318Z,83.25
2018-07-10T06:16:36.883Z,83.44
2018-07-10T06:17:37.445Z,83.44
2018-07-10T06:18:38.009Z,83.44
2018-07-10T06:19:38.564Z,82.96
2018-07-10T06:20:39.132Z,83.15
2018-07-10T06:21:39.691Z,82.96
2018-07-10T06:22:40.255Z,83.25
2018-07-10T06:23:40.812Z,83.25
2018-07-10T06:24:41.375Z,83.05
2018-07-10T06:25:41.945Z,82.86
2018-07-10T06:26:42.512Z,82.76
2018-07-10T06:27:43.074Z,82.67
2018-07-10T06:28:43.639Z,82.19
2018-07-10T06:29:44.203Z,82.29
2018-07-10T06:30:44.768Z,82.29
2018-07-10T06:31:45.332Z,82.04
2018-07-10T06:32:45.896Z,81.37
2018-07-10T06:33:46.461Z,80.16
2018-07-10T06:34:47.025Z,79.44
2018-07-10T06:35:47.594Z,78.03
2018-07-10T06:36:48.173Z,77.36
2018-07-10T06:37:48.771Z,76.06
2018-07-10T06:38:49.331Z,74.94
2018-07-10T06:39:49.909Z,73.15
2018-07-10T06:40:50.476Z,72.61
2018-07-10T06:41:51.042Z,71.91
2018-07-10T06:42:51.619Z,71.84
2018-07-10T06:43:52.195Z,71.46
2018-07-10T06:44:52.765Z,70.75
2018-07-10T06:45:53.335Z,71.81
2018-07-10T06:46:53.906Z,71.61
2018-07-10T06:47:54.474Z,72.06
2018-07-10T06:48:55.040Z,72.69
2018-07-10T06:49:55.600Z,73.18
2018-07-10T06:50:56.169Z,73.27
2018-07-10T06:51:56.730Z,72.79
2018-07-10T06:52:57.432Z,73.18
2018-07-10T06:53:57.867Z,73.31
2018-07-10T06:54:58.437Z,72.83
2018-07-10T06:55:59.005Z,72.64
2018-07-10T06:56:59.580Z,71.61
2018-07-10T06:58:00.144Z,71.42
2018-07-10T06:59:00.716Z,70.65
2018-07-10T07:00:01.287Z,71.04
2018-07-10T07:01:01.874Z,70.84
2018-07-10T07:02:02.456Z,70.40
2018-07-10T07:03:03.025Z,69.44
2018-07-10T07:04:03.591Z,69.34
2018-07-10T07:05:04.161Z,68.51
2018-07-10T07:06:04.733Z,67.68
2018-07-10T07:07:05.304Z,66.75
2018-07-10T07:08:05.879Z,65.30
2018-07-10T07:09:06.459Z,64.82
2018-07-10T07:10:07.025Z,64.63
2018-07-10T07:11:07.590Z,64.15
2018-07-10T07:12:08.165Z,64.18
2018-07-10T07:13:08.743Z,63.63
2018-07-10T07:14:09.317Z,62.70
2018-07-10T07:15:09.890Z,62.86
2018-07-10T07:16:10.466Z,63.21
2018-07-10T07:17:11.040Z,64.34
2018-07-10T07:18:11.610Z,66.10
2018-07-10T07:19:12.181Z,68.13
2018-07-10T07:20:12.758Z,67.58
2018-07-10T07:21:13.333Z,66.17
2018-07-10T07:22:13.908Z,64.95
2018-07-10T07:23:14.484Z,64.15
2018-07-10T07:24:15.058Z,63.85
2018-07-10T07:25:15.627Z,65.08
2018-07-10T07:26:16.190Z,65.97
2018-07-10T07:27:16.753Z,67.13
2018-07-10T07:28:17.327Z,67.86
2018-07-10T07:29:17.897Z,68.44
2018-07-10T07:30:18.492Z,68.48
2018-07-10T07:31:19.062Z,68.38
2018-07-10T07:32:19.682Z,67.77
2018-07-10T07:33:20.267Z,65.62
2018-07-10T07:34:20.909Z,64.47
2018-07-10T07:35:21.448Z,63.79
2018-07-10T07:36:22.068Z,64.02
2018-07-10T07:37:22.701Z,65.30
2018-07-10T07:38:23.281Z,65.17
2018-07-10T07:39:23.857Z,66.30
2018-07-10T07:40:24.476Z,67.32
2018-07-10T07:41:25.082Z,68.09
2018-07-10T07:42:25.596Z,68.48
2018-07-10T07:43:26.165Z,68.44
2018-07-10T07:44:26.839Z,69.34
2018-07-10T07:45:27.303Z,68.67
2018-07-10T07:46:27.872Z,68.51
2018-07-10T07:47:28.440Z,66.81
2018-07-10T07:48:29.007Z,65.69
2018-07-10T07:49:29.579Z,65.05
2018-07-10T07:50:30.157Z,63.79
2018-07-10T07:51:30.741Z,64.56
2018-07-10T07:52:31.321Z,65.11
2018-07-10T07:53:31.879Z,64.79
2018-07-10T07:54:32.481Z,65.53
2018-07-10T07:55:33.023Z,66.55
2018-07-10T07:56:33.592Z,67.71
2018-07-10T07:57:34.153Z,68.06
2018-07-10T07:58:34.724Z,68.35
2018-07-10T07:59:35.289Z,68.29
2018-07-10T08:00:35.898Z,67.49
2018-07-10T08:01:36.427Z,65.98
2018-07-10T08:02:37.035Z,64.86
2018-07-10T08:03:37.607Z,64.15
2018-07-10T08:04:38.185Z,64.56
2018-07-10T08:05:38.757Z,63.85
2018-07-10T08:06:39.343Z,63.12
2018-07-10T08:07:39.920Z,61.57
2018-07-10T08:08:40.511Z,61.51
2018-07-10T08:09:41.082Z,60.71
2018-07-10T08:10:41.652Z,61.25
2018-07-10T08:11:42.224Z,61.16
2018-07-10T08:12:42.797Z,61.22
2018-07-10T08:13:43.369Z,61.16
2018-07-10T08:14:43.945Z,60.48
2018-07-10T08:15:44.515Z,61.25
2018-07-10T08:16:45.114Z,61.29
2018-07-10T08:17:45.686Z,61.77
2018-07-10T08:18:46.285Z,62.45
2018-07-10T08:19:46.853Z,62.63
2018-07-10T08:20:47.402Z,63.02
2018-07-10T08:21:47.976Z,62.83
2018-07-10T08:22:48.563Z,62.63
2018-07-10T08:23:49.133Z,63.28
2018-07-10T08:24:49.711Z,63.85
2018-07-10T08:25:50.281Z,63.34
2018-07-10T08:26:50.844Z,63.34
2018-07-10T08:27:51.441Z,64.18
2018-07-10T08:28:52.004Z,63.99
2018-07-10T08:29:52.572Z,63.89
2018-07-10T08:30:53.144Z,65.14
2018-07-10T08:31:53.713Z,64.92
2018-07-10T08:32:54.479Z,65.33
2018-07-10T08:33:55.060Z,65.24
2018-07-10T08:34:55.603Z,65.50
2018-07-10T08:35:56.175Z,65.62
2018-07-10T08:36:56.745Z,65.30
2018-07-10T08:37:57.322Z,65.40
2018-07-10T08:38:57.892Z,65.53
2018-07-10T08:39:58.463Z,65.50
2018-07-10T08:40:59.034Z,65.59
2018-07-10T08:41:59.607Z,65.81
2018-07-10T08:43:00.279Z,65.62
2018-07-10T08:44:01.007Z,64.86
2018-07-10T08:45:01.905Z,64.66
2018-07-10T08:46:02.457Z,64.56
2018-07-10T08:47:03.028Z,64.25
2018-07-10T08:48:03.615Z,63.44
2018-07-10T08:49:04.210Z,62.80
2018-07-10T08:50:04.788Z,63.18
2018-07-10T08:51:05.359Z,63.57
2018-07-10T08:52:05.930Z,63.28
2018-07-10T08:53:06.747Z,63.38
2018-07-10T08:54:07.324Z,63.67
2018-07-10T08:55:07.890Z,63.70
2018-07-10T08:56:08.482Z,63.67
2018-07-10T08:57:09.028Z,63.47
2018-07-10T08:58:09.590Z,64.43
2018-07-10T08:59:10.175Z,64.15
2018-07-10T09:00:10.771Z,63.67
2018-07-10T09:01:11.337Z,63.89
2018-07-10T09:02:11.899Z,62.73
2018-07-10T09:03:12.471Z,61.31
2018-07-10T09:04:13.083Z,60.18
2018-07-10T09:05:13.665Z,58.90
2018-07-10T09:06:14.339Z,59.71
2018-07-10T09:07:14.974Z,60.93
2018-07-10T09:08:15.541Z,61.32
2018-07-10T09:09:16.119Z,61.35
2018-07-10T09:10:16.693Z,60.51
2018-07-10T09:11:17.267Z,60.06
2018-07-10T09:12:17.849Z,58.35
2018-07-10T09:13:18.430Z,57.79
2018-07-10T09:14:19.040Z,56.45
2018-07-10T09:15:19.604Z,56.35
2018-07-10T09:16:20.224Z,56.83
2018-07-10T09:17:20.793Z,57.03
2018-07-10T09:18:21.376Z,56.73
2018-07-10T09:19:21.963Z,57.12
2018-07-10T09:20:22.571Z,57.38
2018-07-10T09:21:23.148Z,57.06
2018-07-10T09:22:23.728Z,57.45
2018-07-10T09:23:24.309Z,57.62
2018-07-10T09:24:24.883Z,58.00
2018-07-10T09:25:25.460Z,58.00
2018-07-10T09:26:26.038Z,58.36
2018-07-10T09:27:26.624Z,58.94
2018-07-10T09:28:27.185Z,59.32
2018-07-10T09:29:27.767Z,59.61
2018-07-10T09:30:28.340Z,60.35
2018-07-10T09:31:28.929Z,60.45
2018-07-10T09:32:29.507Z,60.32
2018-07-10T09:33:30.153Z,60.32
2018-07-10T09:34:30.665Z,61.19
2018-07-10T09:35:31.246Z,61.29
2018-07-10T09:36:31.812Z,61.96
2018-07-10T09:37:32.384Z,62.35
2018-07-10T09:38:32.963Z,62.54
2018-07-10T09:39:33.579Z,62.54
2018-07-10T09:40:34.157Z,62.15
2018-07-10T09:41:34.738Z,62.03
2018-07-10T09:42:35.301Z,62.60
2018-07-10T09:43:35.928Z,62.99
2018-07-10T09:44:36.500Z,63.57
2018-07-10T09:45:37.093Z,63.34
2018-07-10T09:46:37.655Z,64.05
2018-07-10T09:47:38.235Z,64.12
2018-07-10T09:48:38.803Z,64.95
2018-07-10T09:49:39.369Z,65.33
2018-07-10T09:50:39.942Z,65.62
2018-07-10T09:51:40.529Z,65.97
2018-07-10T09:52:41.081Z,66.46
2018-07-10T09:53:41.654Z,66.65
2018-07-10T09:54:42.328Z,66.46
2018-07-10T09:55:43.083Z,66.46
2018-07-10T09:56:43.651Z,67.22
2018-07-10T09:57:44.232Z,67.51
2018-07-10T09:58:44.808Z,67.42
2018-07-10T09:59:45.366Z,67.42
2018-07-10T10:00:45.933Z,67.22
2018-07-10T10:01:46.548Z,67.10
2018-07-10T10:02:47.063Z,67.19
2018-07-10T10:03:47.633Z,67.61
2018-07-10T10:04:48.203Z,66.65
2018-07-10T10:05:48.794Z,66.55
2018-07-10T10:06:49.323Z,66.46
2018-07-10T10:07:49.891Z,66.74
2018-07-10T10:08:50.468Z,66.74
2018-07-10T10:09:51.044Z,66.65
2018-07-10T10:10:51.635Z,66.84
2018-07-10T10:11:52.189Z,67.51
2018-07-10T10:12:52.747Z,67.71
2018-07-10T10:13:53.333Z,67.90
2018-07-10T10:14:53.899Z,68.38
2018-07-10T10:15:54.457Z,68.19
2018-07-10T10:16:55.030Z,68.38
2018-07-10T10:17:55.592Z,68.09
2018-07-10T10:18:56.165Z,67.71
2018-07-10T10:19:56.739Z,67.83
2018-07-10T10:20:57.310Z,67.45
2018-07-10T10:21:57.882Z,66.68
2018-07-10T10:22:58.444Z,66.68
2018-07-10T10:23:59.040Z,66.84
2018-07-10T10:24:59.604Z,67.13
2018-07-10T10:26:00.185Z,67.71
2018-07-10T10:27:00.752Z,67.80
2018-07-10T10:28:01.332Z,67.80
2018-07-10T10:29:01.943Z,67.90
2018-07-10T10:30:02.521Z,68.25
2018-07-10T10:31:03.077Z,68.83
2018-07-10T10:32:03.648Z,69.31
2018-07-10T10:33:04.295Z,69.40
2018-07-10T10:34:04.919Z,69.02
2018-07-10T10:35:05.500Z,69.31
2018-07-10T10:36:06.061Z,69.21
2018-07-10T10:37:06.642Z,69.98
2018-07-10T10:38:07.223Z,69.98
2018-07-10T10:39:07.786Z,69.79
2018-07-10T10:40:08.351Z,69.79
2018-07-10T10:41:08.928Z,69.12
2018-07-10T10:42:09.497Z,69.40
2018-07-10T10:43:10.065Z,69.50
2018-07-10T10:44:10.623Z,69.15
2018-07-10T10:45:11.201Z,69.34
2018-07-10T10:46:11.801Z,69.15
2018-07-10T10:47:12.360Z,68.86
2018-07-10T10:48:12.919Z,68.76
2018-07-10T10:49:13.491Z,68.19
2018-07-10T10:50:14.057Z,69.15
2018-07-10T10:51:14.621Z,69.44
2018-07-10T10:52:15.175Z,69.24
2018-07-10T10:53:15.760Z,68.96
2018-07-10T10:54:16.328Z,69.24
2018-07-10T10:55:16.896Z,69.15
2018-07-10T10:56:17.466Z,69.44
2018-07-10T10:57:18.042Z,69.50
2018-07-10T10:58:18.617Z,70.37
2018-07-10T10:59:19.182Z,70.84
2018-07-10T11:00:19.754Z,71.33
2018-07-10T11:01:20.321Z,70.94
2018-07-10T11:02:20.919Z,71.19
2018-07-10T11:03:21.463Z,71.00
2018-07-10T11:04:22.030Z,71.33
2018-07-10T11:05:22.621Z,71.67
2018-07-10T11:06:23.186Z,71.61
2018-07-10T11:07:23.748Z,71.33
2018-07-10T11:08:24.310Z,71.52
2018-07-10T11:09:24.866Z,71.42
2018-07-10T11:10:25.426Z,71.42
2018-07-10T11:11:25.997Z,71.61
2018-07-10T11:12:26.584Z,71.52
2018-07-10T11:13:27.153Z,71.67
2018-07-10T11:14:27.727Z,70.81
2018-07-10T11:15:28.371Z,71.91
2018-07-10T11:16:28.861Z,71.29
2018-07-10T11:17:29.414Z,71.58
2018-07-10T11:18:29.982Z,72.06
2018-07-10T11:19:30.553Z,72.25
2018-07-10T11:20:31.108Z,71.96
2018-07-10T11:21:31.671Z,72.64
2018-07-10T11:22:32.250Z,72.34
2018-07-10T11:23:32.796Z,73.02
2018-07-10T11:24:33.371Z,72.34
2018-07-10T11:25:33.937Z,72.54
2018-07-10T11:26:34.510Z,72.73
2018-07-10T11:27:35.107Z,71.96
2018-07-10T11:28:35.658Z,72.19
2018-07-10T11:29:36.220Z,71.14
2018-07-10T11:30:36.812Z,70.78
2018-07-10T11:31:37.454Z,70.11
2018-07-10T11:32:38.028Z,69.34
2018-07-10T11:33:38.588Z,68.51
2018-07-10T11:34:39.159Z,68.60
2018-07-10T11:35:39.710Z,68.60
2018-07-10T11:36:40.289Z,68.70
2018-07-10T11:37:40.913Z,68.70
2018-07-10T11:38:41.550Z,68.22
2018-07-10T11:39:42.147Z,68.13
2018-07-10T11:40:42.716Z,68.60
2018-07-10T11:41:43.298Z,68.32
2018-07-10T11:42:43.873Z,68.70
2018-07-10T11:43:44.495Z,68.57
2018-07-10T11:44:45.159Z,69.15
2018-07-10T11:45:45.705Z,69.69
2018-07-10T11:46:46.251Z,70.46
2018-07-10T11:47:46.850Z,70.94
2018-07-10T11:48:47.401Z,71.23
2018-07-10T11:49:47.969Z,71.23
2018-07-10T11:50:48.530Z,71.42
2018-07-10T11:51:49.166Z,71.81
2018-07-10T11:52:49.665Z,72.58
2018-07-10T11:53:50.333Z,72.83
2018-07-10T11:54:50.857Z,72.73
2018-07-10T11:55:51.450Z,73.11
2018-07-10T11:56:52.055Z,72.83
2018-07-10T11:57:52.685Z,73.02
2018-07-10T11:58:53.294Z,73.50
2018-07-10T11:59:53.940Z,73.69
2018-07-10T12:00:54.583Z,74.08
2018-07-10T12:01:55.152Z,74.08
2018-07-10T12:02:55.721Z,73.88
2018-07-10T12:03:56.298Z,73.31
2018-07-10T12:04:56.928Z,73.98
2018-07-10T12:05:57.453Z,73.79
2018-07-10T12:06:58.011Z,73.69
2018-07-10T12:07:58.571Z,74.17
2018-07-10T12:08:59.157Z,73.63
2018-07-10T12:09:59.701Z,72.96
2018-07-10T12:11:00.265Z,73.06
2018-07-10T12:12:00.829Z,73.15
2018-07-10T12:13:01.388Z,73.06
2018-07-10T12:14:01.962Z,72.96
2018-07-10T12:15:02.535Z,73.54
2018-07-10T12:16:03.106Z,73.35
2018-07-10T12:17:03.709Z,73.41
2018-07-10T12:18:04.266Z,74.17
2018-07-10T12:19:04.856Z,74.17
2018-07-10T12:20:05.424Z,74.11
2018-07-10T12:21:06.055Z,73.83
2018-07-10T12:22:06.827Z,74.40
2018-07-10T12:23:07.394Z,74.08
2018-07-10T12:24:07.973Z,74.17
2018-07-10T12:25:08.622Z,74.17
2018-07-10T12:26:09.196Z,74.46
2018-07-10T12:27:09.766Z,75.23
2018-07-10T12:28:10.340Z,75.48
2018-07-10T12:29:10.908Z,75.20
2018-07-10T12:30:11.736Z,76.00
2018-07-10T12:31:12.329Z,75.71
2018-07-10T12:32:12.930Z,75.57
2018-07-10T12:33:13.456Z,75.90
2018-07-10T12:34:14.046Z,76.06
2018-07-10T12:35:14.604Z,76.09
2018-07-10T12:36:15.184Z,75.62
2018-07-10T12:37:15.792Z,75.57
2018-07-10T12:38:16.367Z,76.15
2018-07-10T12:39:16.952Z,76.44
2018-07-10T12:40:17.548Z,76.15
2018-07-10T12:41:18.230Z,76.82
2018-07-10T12:42:18.787Z,77.21
2018-07-10T12:43:19.358Z,77.11
2018-07-10T12:44:19.950Z,77.40
2018-07-10T12:45:20.530Z,77.59
2018-07-10T12:46:21.090Z,77.78
2018-07-10T12:47:21.672Z,77.50
2018-07-10T12:48:22.231Z,77.26
2018-07-10T12:49:22.855Z,77.56
2018-07-10T12:50:23.356Z,78.32
2018-07-10T12:51:23.931Z,78.03
2018-07-10T12:52:24.495Z,79.19
2018-07-10T12:53:25.091Z,80.82
2018-07-10T12:54:25.636Z,82.45
2018-07-10T12:55:26.202Z,83.51
2018-07-10T12:56:26.775Z,84.52
2018-07-10T12:57:27.341Z,84.52
2018-07-10T12:58:27.947Z,85.19
2018-07-10T12:59:28.468Z,85.48